sensor_id;sensor_type;location;lat;lon;timestamp;P1;durP1;ratioP1;P2;durP2;ratioP2
60975;SDS011;46849;48.154;17.042;2022-09-09T00:00:27;0.82;;;0.47;;
60975;SDS011;46849;48.154;17.042;2022-09-09T00:03:34;0.40;;;0.20;;
60975;SDS011;46849;48.154;17.042;2022-09-09T00:06:42;1.02;;;0.40;;
60975;SDS011;46849;48.154;17.042;2022-09-09T00:09:29;0.77;;;0.40;;
60975;SDS011;46849;48.154;17.042;2022-09-09T00:12:27;1.13;;;0.30;;
60975;SDS011;46849;48.154;17.042;2022-09-09T00:15:14;2.05;;;0.50;;
60975;SDS011;46849;48.154;17.042;2022-09-09T00:21:06;0.50;;;0.25;;
60975;SDS011;46849;48.154;17.042;2022-09-09T00:23:54;0.73;;;0.22;;
60975;SDS011;46849;48.154;17.042;2022-09-09T00:26:48;0.30;;;0.20;;
60975;SDS011;46849;48.154;17.042;2022-09-09T00:32:30;0.43;;;0.20;;
60975;SDS011;46849;48.154;17.042;2022-09-09T00:38:10;0.30;;;0.20;;
60975;SDS011;46849;48.154;17.042;2022-09-09T00:41:10;0.40;;;0.30;;
60975;SDS011;46849;48.154;17.042;2022-09-09T00:53:54;0.40;;;0.30;;
60975;SDS011;46849;48.154;17.042;2022-09-09T01:03:14;0.73;;;0.17;;
60975;SDS011;46849;48.154;17.042;2022-09-09T01:06:39;1.15;;;0.30;;
60975;SDS011;46849;48.154;17.042;2022-09-09T01:12:41;0.82;;;0.40;;
60975;SDS011;46849;48.154;17.042;2022-09-09T01:15:31;0.55;;;0.22;;
60975;SDS011;46849;48.154;17.042;2022-09-09T01:18:20;0.68;;;0.30;;
60975;SDS011;46849;48.154;17.042;2022-09-09T01:21:09;0.28;;;0.15;;
60975;SDS011;46849;48.154;17.042;2022-09-09T01:27:33;1.45;;;0.30;;
60975;SDS011;46849;48.154;17.042;2022-09-09T01:30:20;0.93;;;0.30;;
60975;SDS011;46849;48.154;17.042;2022-09-09T01:33:07;1.85;;;0.25;;
60975;SDS011;46849;48.154;17.042;2022-09-09T01:36:07;2.63;;;0.30;;
60975;SDS011;46849;48.154;17.042;2022-09-09T01:39:04;2.78;;;0.70;;
60975;SDS011;46849;48.154;17.042;2022-09-09T01:41:50;1.80;;;0.50;;
60975;SDS011;46849;48.154;17.042;2022-09-09T01:44:36;0.60;;;0.32;;
60975;SDS011;46849;48.154;17.042;2022-09-09T01:47:22;0.93;;;0.30;;
60975;SDS011;46849;48.154;17.042;2022-09-09T01:50:22;0.80;;;0.32;;
60975;SDS011;46849;48.154;17.042;2022-09-09T01:53:07;0.75;;;0.30;;
60975;SDS011;46849;48.154;17.042;2022-09-09T02:02:09;0.60;;;0.38;;
60975;SDS011;46849;48.154;17.042;2022-09-09T02:08:21;1.00;;;0.40;;
60975;SDS011;46849;48.154;17.042;2022-09-09T02:11:21;1.83;;;0.40;;
60975;SDS011;46849;48.154;17.042;2022-09-09T02:14:16;1.40;;;0.40;;
60975;SDS011;46849;48.154;17.042;2022-09-09T02:17:08;0.68;;;0.25;;
60975;SDS011;46849;48.154;17.042;2022-09-09T02:20:15;1.13;;;0.60;;
60975;SDS011;46849;48.154;17.042;2022-09-09T02:23:08;1.83;;;0.50;;
60975;SDS011;46849;48.154;17.042;2022-09-09T02:25:56;0.80;;;0.60;;
60975;SDS011;46849;48.154;17.042;2022-09-09T02:28:43;0.82;;;0.40;;
60975;SDS011;46849;48.154;17.042;2022-09-09T02:31:28;1.50;;;0.80;;
60975;SDS011;46849;48.154;17.042;2022-09-09T02:34:20;0.75;;;0.55;;
60975;SDS011;46849;48.154;17.042;2022-09-09T02:37:08;0.85;;;0.60;;
60975;SDS011;46849;48.154;17.042;2022-09-09T02:39:56;1.88;;;0.65;;
60975;SDS011;46849;48.154;17.042;2022-09-09T02:42:43;1.45;;;0.60;;
60975;SDS011;46849;48.154;17.042;2022-09-09T02:45:41;1.00;;;0.40;;
60975;SDS011;46849;48.154;17.042;2022-09-09T02:48:35;1.02;;;0.60;;
60975;SDS011;46849;48.154;17.042;2022-09-09T02:54:47;0.50;;;0.35;;
60975;SDS011;46849;48.154;17.042;2022-09-09T02:57:35;0.30;;;0.20;;
60975;SDS011;46849;48.154;17.042;2022-09-09T03:00:26;0.47;;;0.30;;
60975;SDS011;46849;48.154;17.042;2022-09-09T03:03:15;0.45;;;0.25;;
60975;SDS011;46849;48.154;17.042;2022-09-09T03:06:01;0.60;;;0.30;;
60975;SDS011;46849;48.154;17.042;2022-09-09T03:08:46;2.55;;;0.45;;
60975;SDS011;46849;48.154;17.042;2022-09-09T03:11:31;0.40;;;0.20;;
60975;SDS011;46849;48.154;17.042;2022-09-09T03:14:16;1.48;;;0.28;;
60975;SDS011;46849;48.154;17.042;2022-09-09T03:17:06;0.40;;;0.22;;
60975;SDS011;46849;48.154;17.042;2022-09-09T03:19:56;1.10;;;0.43;;
60975;SDS011;46849;48.154;17.042;2022-09-09T03:22:41;1.25;;;0.50;;
60975;SDS011;46849;48.154;17.042;2022-09-09T03:25:26;1.05;;;0.55;;
60975;SDS011;46849;48.154;17.042;2022-09-09T03:28:12;0.55;;;0.40;;
60975;SDS011;46849;48.154;17.042;2022-09-09T03:30:59;1.92;;;0.40;;
60975;SDS011;46849;48.154;17.042;2022-09-09T03:33:57;3.15;;;0.60;;
60975;SDS011;46849;48.154;17.042;2022-09-09T03:36:51;0.50;;;0.30;;
60975;SDS011;46849;48.154;17.042;2022-09-09T03:39:37;0.80;;;0.30;;
60975;SDS011;46849;48.154;17.042;2022-09-09T03:42:22;0.50;;;0.22;;
60975;SDS011;46849;48.154;17.042;2022-09-09T03:45:10;0.35;;;0.20;;
60975;SDS011;46849;48.154;17.042;2022-09-09T03:47:57;0.60;;;0.30;;
60975;SDS011;46849;48.154;17.042;2022-09-09T03:50:46;0.50;;;0.35;;
60975;SDS011;46849;48.154;17.042;2022-09-09T03:53:32;0.95;;;0.65;;
60975;SDS011;46849;48.154;17.042;2022-09-09T03:56:17;0.95;;;0.60;;
60975;SDS011;46849;48.154;17.042;2022-09-09T03:59:03;0.98;;;0.70;;
60975;SDS011;46849;48.154;17.042;2022-09-09T04:01:49;1.30;;;0.60;;
60975;SDS011;46849;48.154;17.042;2022-09-09T04:04:36;1.92;;;0.60;;
60975;SDS011;46849;48.154;17.042;2022-09-09T04:07:26;2.47;;;0.30;;
60975;SDS011;46849;48.154;17.042;2022-09-09T04:10:12;0.95;;;0.55;;
60975;SDS011;46849;48.154;17.042;2022-09-09T04:12:58;1.95;;;0.85;;
60975;SDS011;46849;48.154;17.042;2022-09-09T04:15:44;2.08;;;0.60;;
60975;SDS011;46849;48.154;17.042;2022-09-09T04:18:34;1.10;;;0.47;;
60975;SDS011;46849;48.154;17.042;2022-09-09T04:21:19;0.50;;;0.40;;
60975;SDS011;46849;48.154;17.042;2022-09-09T04:24:05;1.40;;;0.60;;
60975;SDS011;46849;48.154;17.042;2022-09-09T04:26:51;1.30;;;0.50;;
60975;SDS011;46849;48.154;17.042;2022-09-09T04:29:36;2.45;;;0.80;;
60975;SDS011;46849;48.154;17.042;2022-09-09T04:32:21;3.97;;;1.10;;
60975;SDS011;46849;48.154;17.042;2022-09-09T04:35:06;1.17;;;0.60;;
60975;SDS011;46849;48.154;17.042;2022-09-09T04:37:52;6.68;;;1.15;;
60975;SDS011;46849;48.154;17.042;2022-09-09T04:40:37;1.75;;;0.80;;
60975;SDS011;46849;48.154;17.042;2022-09-09T04:43:26;2.83;;;0.65;;
60975;SDS011;46849;48.154;17.042;2022-09-09T04:46:12;2.85;;;0.80;;
60975;SDS011;46849;48.154;17.042;2022-09-09T04:48:57;2.15;;;0.68;;
60975;SDS011;46849;48.154;17.042;2022-09-09T04:51:48;1.05;;;0.70;;
60975;SDS011;46849;48.154;17.042;2022-09-09T04:54:34;4.18;;;0.70;;
60975;SDS011;46849;48.154;17.042;2022-09-09T04:57:19;1.48;;;0.63;;
60975;SDS011;46849;48.154;17.042;2022-09-09T05:00:05;1.30;;;0.65;;
60975;SDS011;46849;48.154;17.042;2022-09-09T05:02:58;0.80;;;0.60;;
60975;SDS011;46849;48.154;17.042;2022-09-09T05:05:43;1.30;;;0.80;;
60975;SDS011;46849;48.154;17.042;2022-09-09T05:08:29;1.15;;;0.75;;
60975;SDS011;46849;48.154;17.042;2022-09-09T05:11:23;3.42;;;0.80;;
60975;SDS011;46849;48.154;17.042;2022-09-09T05:14:13;0.80;;;0.50;;
60975;SDS011;46849;48.154;17.042;2022-09-09T05:16:58;1.23;;;0.70;;
60975;SDS011;46849;48.154;17.042;2022-09-09T05:19:43;2.17;;;1.10;;
60975;SDS011;46849;48.154;17.042;2022-09-09T05:22:28;4.60;;;1.90;;
60975;SDS011;46849;48.154;17.042;2022-09-09T05:25:14;4.50;;;1.98;;
60975;SDS011;46849;48.154;17.042;2022-09-09T05:28:00;3.03;;;1.38;;
60975;SDS011;46849;48.154;17.042;2022-09-09T05:30:45;3.30;;;1.00;;
60975;SDS011;46849;48.154;17.042;2022-09-09T05:33:30;2.38;;;0.98;;
60975;SDS011;46849;48.154;17.042;2022-09-09T05:36:17;4.35;;;1.17;;
60975;SDS011;46849;48.154;17.042;2022-09-09T05:39:04;3.50;;;1.35;;
60975;SDS011;46849;48.154;17.042;2022-09-09T05:41:51;3.70;;;1.15;;
60975;SDS011;46849;48.154;17.042;2022-09-09T05:44:36;4.85;;;1.42;;
60975;SDS011;46849;48.154;17.042;2022-09-09T05:47:21;9.05;;;1.63;;
60975;SDS011;46849;48.154;17.042;2022-09-09T05:50:06;10.50;;;9.48;;
60975;SDS011;46849;48.154;17.042;2022-09-09T05:52:54;17.40;;;15.65;;
60975;SDS011;46849;48.154;17.042;2022-09-09T05:55:38;12.32;;;11.15;;
60975;SDS011;46849;48.154;17.042;2022-09-09T05:58:23;6.38;;;4.53;;
60975;SDS011;46849;48.154;17.042;2022-09-09T06:01:28;8.48;;;6.18;;
60975;SDS011;46849;48.154;17.042;2022-09-09T06:04:15;14.38;;;7.25;;
60975;SDS011;46849;48.154;17.042;2022-09-09T06:07:02;3.80;;;1.60;;
60975;SDS011;46849;48.154;17.042;2022-09-09T06:09:48;9.38;;;5.00;;
60975;SDS011;46849;48.154;17.042;2022-09-09T06:12:33;3.78;;;2.40;;
60975;SDS011;46849;48.154;17.042;2022-09-09T06:15:20;6.15;;;2.75;;
60975;SDS011;46849;48.154;17.042;2022-09-09T06:18:04;2.30;;;0.73;;
60975;SDS011;46849;48.154;17.042;2022-09-09T06:20:55;2.85;;;1.23;;
60975;SDS011;46849;48.154;17.042;2022-09-09T06:23:45;2.58;;;0.50;;
60975;SDS011;46849;48.154;17.042;2022-09-09T06:26:32;4.03;;;1.27;;
60975;SDS011;46849;48.154;17.042;2022-09-09T06:29:19;1.30;;;0.60;;
60975;SDS011;46849;48.154;17.042;2022-09-09T06:32:04;2.78;;;0.60;;
60975;SDS011;46849;48.154;17.042;2022-09-09T06:34:49;1.70;;;0.70;;
60975;SDS011;46849;48.154;17.042;2022-09-09T06:37:34;3.38;;;1.20;;
60975;SDS011;46849;48.154;17.042;2022-09-09T06:40:19;1.73;;;0.50;;
60975;SDS011;46849;48.154;17.042;2022-09-09T06:43:05;0.90;;;0.40;;
60975;SDS011;46849;48.154;17.042;2022-09-09T06:45:56;1.48;;;0.57;;
60975;SDS011;46849;48.154;17.042;2022-09-09T06:48:51;0.50;;;0.40;;
60975;SDS011;46849;48.154;17.042;2022-09-09T06:51:39;1.90;;;0.60;;
60975;SDS011;46849;48.154;17.042;2022-09-09T06:54:29;1.88;;;0.50;;
60975;SDS011;46849;48.154;17.042;2022-09-09T06:57:14;3.45;;;0.65;;
60975;SDS011;46849;48.154;17.042;2022-09-09T06:59:59;2.55;;;0.70;;
60975;SDS011;46849;48.154;17.042;2022-09-09T07:02:43;0.73;;;0.40;;
60975;SDS011;46849;48.154;17.042;2022-09-09T07:05:30;1.38;;;0.43;;
60975;SDS011;46849;48.154;17.042;2022-09-09T07:08:15;1.83;;;0.50;;
60975;SDS011;46849;48.154;17.042;2022-09-09T07:11:02;0.55;;;0.47;;
60975;SDS011;46849;48.154;17.042;2022-09-09T07:13:53;1.50;;;0.60;;
60975;SDS011;46849;48.154;17.042;2022-09-09T07:16:39;2.35;;;1.38;;
60975;SDS011;46849;48.154;17.042;2022-09-09T07:19:27;1.98;;;0.70;;
60975;SDS011;46849;48.154;17.042;2022-09-09T07:22:13;0.95;;;0.77;;
60975;SDS011;46849;48.154;17.042;2022-09-09T07:24:59;2.25;;;0.85;;
60975;SDS011;46849;48.154;17.042;2022-09-09T07:27:45;1.10;;;0.55;;
60975;SDS011;46849;48.154;17.042;2022-09-09T07:30:30;1.83;;;0.95;;
60975;SDS011;46849;48.154;17.042;2022-09-09T07:33:16;2.67;;;0.80;;
60975;SDS011;46849;48.154;17.042;2022-09-09T07:36:13;0.73;;;0.50;;
60975;SDS011;46849;48.154;17.042;2022-09-09T07:39:04;1.60;;;0.57;;
60975;SDS011;46849;48.154;17.042;2022-09-09T07:41:54;4.40;;;0.73;;
60975;SDS011;46849;48.154;17.042;2022-09-09T07:44:40;2.05;;;0.60;;
60975;SDS011;46849;48.154;17.042;2022-09-09T07:47:31;2.33;;;0.77;;
60975;SDS011;46849;48.154;17.042;2022-09-09T07:50:16;2.15;;;0.50;;
60975;SDS011;46849;48.154;17.042;2022-09-09T07:53:01;1.00;;;0.60;;
60975;SDS011;46849;48.154;17.042;2022-09-09T07:55:47;1.27;;;0.50;;
60975;SDS011;46849;48.154;17.042;2022-09-09T07:58:32;1.00;;;0.60;;
60975;SDS011;46849;48.154;17.042;2022-09-09T08:01:19;1.52;;;0.82;;
60975;SDS011;46849;48.154;17.042;2022-09-09T08:04:16;1.23;;;0.63;;
60975;SDS011;46849;48.154;17.042;2022-09-09T08:07:04;2.30;;;0.80;;
60975;SDS011;46849;48.154;17.042;2022-09-09T08:09:54;0.98;;;0.50;;
60975;SDS011;46849;48.154;17.042;2022-09-09T08:12:44;1.05;;;0.60;;
60975;SDS011;46849;48.154;17.042;2022-09-09T08:15:29;1.73;;;0.43;;
60975;SDS011;46849;48.154;17.042;2022-09-09T08:18:14;1.65;;;0.40;;
60975;SDS011;46849;48.154;17.042;2022-09-09T08:21:09;1.20;;;0.65;;
60975;SDS011;46849;48.154;17.042;2022-09-09T08:23:57;2.92;;;0.65;;
60975;SDS011;46849;48.154;17.042;2022-09-09T08:26:44;4.30;;;0.50;;
60975;SDS011;46849;48.154;17.042;2022-09-09T08:29:31;1.65;;;0.38;;
60975;SDS011;46849;48.154;17.042;2022-09-09T08:32:16;1.63;;;0.40;;
60975;SDS011;46849;48.154;17.042;2022-09-09T08:35:02;2.20;;;0.55;;
60975;SDS011;46849;48.154;17.042;2022-09-09T08:37:47;0.60;;;0.40;;
60975;SDS011;46849;48.154;17.042;2022-09-09T08:40:32;0.82;;;0.50;;
60975;SDS011;46849;48.154;17.042;2022-09-09T08:43:24;2.70;;;0.50;;
60975;SDS011;46849;48.154;17.042;2022-09-09T08:46:25;3.10;;;0.47;;
60975;SDS011;46849;48.154;17.042;2022-09-09T08:53:36;1.05;;;0.50;;
60975;SDS011;46849;48.154;17.042;2022-09-09T08:56:18;1.73;;;0.57;;
60975;SDS011;46849;48.154;17.042;2022-09-09T08:59:11;0.63;;;0.40;;
60975;SDS011;46849;48.154;17.042;2022-09-09T09:08:32;0.65;;;0.50;;
60975;SDS011;46849;48.154;17.042;2022-09-09T09:11:25;3.05;;;0.50;;
60975;SDS011;46849;48.154;17.042;2022-09-09T09:14:16;0.70;;;0.40;;
60975;SDS011;46849;48.154;17.042;2022-09-09T09:17:18;3.03;;;0.50;;
60975;SDS011;46849;48.154;17.042;2022-09-09T09:20:06;0.40;;;0.32;;
60975;SDS011;46849;48.154;17.042;2022-09-09T09:22:59;0.73;;;0.30;;
60975;SDS011;46849;48.154;17.042;2022-09-09T09:25:50;1.58;;;0.40;;
60975;SDS011;46849;48.154;17.042;2022-09-09T09:28:41;2.72;;;0.40;;
60975;SDS011;46849;48.154;17.042;2022-09-09T09:31:33;0.68;;;0.30;;
60975;SDS011;46849;48.154;17.042;2022-09-09T09:34:17;0.68;;;0.40;;
60975;SDS011;46849;48.154;17.042;2022-09-09T09:37:07;0.20;;;0.20;;
60975;SDS011;46849;48.154;17.042;2022-09-09T09:40:14;0.68;;;0.20;;
60975;SDS011;46849;48.154;17.042;2022-09-09T09:43:01;0.65;;;0.17;;
60975;SDS011;46849;48.154;17.042;2022-09-09T09:45:48;0.20;;;0.20;;
60975;SDS011;46849;48.154;17.042;2022-09-09T09:48:34;2.42;;;0.20;;
60975;SDS011;46849;48.154;17.042;2022-09-09T09:51:19;0.40;;;0.10;;
60975;SDS011;46849;48.154;17.042;2022-09-09T09:57:07;1.00;;;0.13;;
60975;SDS011;46849;48.154;17.042;2022-09-09T10:00:00;1.33;;;0.20;;
60975;SDS011;46849;48.154;17.042;2022-09-09T10:02:59;0.17;;;0.03;;
60975;SDS011;46849;48.154;17.042;2022-09-09T10:05:46;1.45;;;0.20;;
60975;SDS011;46849;48.154;17.042;2022-09-09T10:08:33;0.75;;;0.20;;
60975;SDS011;46849;48.154;17.042;2022-09-09T10:14:36;0.95;;;0.20;;
60975;SDS011;46849;48.154;17.042;2022-09-09T10:18:06;1.30;;;0.40;;
60975;SDS011;46849;48.154;17.042;2022-09-09T10:20:59;2.13;;;0.32;;
60975;SDS011;46849;48.154;17.042;2022-09-09T10:27:02;0.90;;;0.40;;
60975;SDS011;46849;48.154;17.042;2022-09-09T10:30:02;1.33;;;0.20;;
60975;SDS011;46849;48.154;17.042;2022-09-09T10:39:15;1.05;;;0.47;;
60975;SDS011;46849;48.154;17.042;2022-09-09T10:42:16;0.90;;;0.50;;
60975;SDS011;46849;48.154;17.042;2022-09-09T10:45:34;1.17;;;0.40;;
60975;SDS011;46849;48.154;17.042;2022-09-09T10:52:09;2.20;;;0.30;;
60975;SDS011;46849;48.154;17.042;2022-09-09T10:55:18;1.25;;;0.25;;
60975;SDS011;46849;48.154;17.042;2022-09-09T10:58:14;0.50;;;0.22;;
60975;SDS011;46849;48.154;17.042;2022-09-09T11:01:10;1.17;;;0.43;;
60975;SDS011;46849;48.154;17.042;2022-09-09T11:04:21;1.10;;;0.28;;
60975;SDS011;46849;48.154;17.042;2022-09-09T11:07:10;0.40;;;0.20;;
60975;SDS011;46849;48.154;17.042;2022-09-09T11:10:01;0.60;;;0.23;;
60975;SDS011;46849;48.154;17.042;2022-09-09T11:12:50;0.88;;;0.20;;
60975;SDS011;46849;48.154;17.042;2022-09-09T11:15:46;2.20;;;0.20;;
60975;SDS011;46849;48.154;17.042;2022-09-09T11:18:39;1.52;;;0.32;;
60975;SDS011;46849;48.154;17.042;2022-09-09T11:21:31;2.00;;;0.30;;
60975;SDS011;46849;48.154;17.042;2022-09-09T11:24:37;1.05;;;0.25;;
60975;SDS011;46849;48.154;17.042;2022-09-09T11:27:28;1.20;;;0.30;;
60975;SDS011;46849;48.154;17.042;2022-09-09T11:45:10;1.23;;;0.20;;
60975;SDS011;46849;48.154;17.042;2022-09-09T11:48:04;1.20;;;0.20;;
60975;SDS011;46849;48.154;17.042;2022-09-09T11:50:57;0.32;;;0.10;;
60975;SDS011;46849;48.154;17.042;2022-09-09T11:56:43;0.32;;;0.15;;
60975;SDS011;46849;48.154;17.042;2022-09-09T11:59:30;0.28;;;0.10;;
60975;SDS011;46849;48.154;17.042;2022-09-09T12:02:18;0.40;;;0.20;;
60975;SDS011;46849;48.154;17.042;2022-09-09T12:05:11;0.90;;;0.28;;
60975;SDS011;46849;48.154;17.042;2022-09-09T12:07:58;1.50;;;0.40;;
60975;SDS011;46849;48.154;17.042;2022-09-09T12:10:53;1.17;;;0.28;;
60975;SDS011;46849;48.154;17.042;2022-09-09T12:13:39;0.90;;;0.15;;
60975;SDS011;46849;48.154;17.042;2022-09-09T12:16:33;0.52;;;0.15;;
60975;SDS011;46849;48.154;17.042;2022-09-09T12:19:20;1.20;;;0.22;;
60975;SDS011;46849;48.154;17.042;2022-09-09T12:22:08;1.13;;;0.35;;
60975;SDS011;46849;48.154;17.042;2022-09-09T12:34:11;0.73;;;0.17;;
60975;SDS011;46849;48.154;17.042;2022-09-09T12:40:03;0.60;;;0.20;;
60975;SDS011;46849;48.154;17.042;2022-09-09T12:43:20;0.52;;;0.20;;
60975;SDS011;46849;48.154;17.042;2022-09-09T12:46:20;1.45;;;0.22;;
60975;SDS011;46849;48.154;17.042;2022-09-09T12:49:47;0.40;;;0.10;;
60975;SDS011;46849;48.154;17.042;2022-09-09T12:52:27;0.57;;;0.20;;
60975;SDS011;46849;48.154;17.042;2022-09-09T12:55:23;1.27;;;0.20;;
60975;SDS011;46849;48.154;17.042;2022-09-09T12:58:13;0.43;;;0.20;;
60975;SDS011;46849;48.154;17.042;2022-09-09T13:01:03;1.58;;;0.30;;
60975;SDS011;46849;48.154;17.042;2022-09-09T13:03:50;1.92;;;0.50;;
60975;SDS011;46849;48.154;17.042;2022-09-09T13:06:35;0.28;;;0.20;;
60975;SDS011;46849;48.154;17.042;2022-09-09T13:09:19;1.85;;;0.30;;
60975;SDS011;46849;48.154;17.042;2022-09-09T13:12:04;0.85;;;0.25;;
60975;SDS011;46849;48.154;17.042;2022-09-09T13:14:55;0.85;;;0.20;;
60975;SDS011;46849;48.154;17.042;2022-09-09T13:17:41;0.75;;;0.30;;
60975;SDS011;46849;48.154;17.042;2022-09-09T13:20:25;1.75;;;0.30;;
60975;SDS011;46849;48.154;17.042;2022-09-09T13:23:12;2.92;;;0.55;;
60975;SDS011;46849;48.154;17.042;2022-09-09T13:25:58;0.88;;;0.30;;
60975;SDS011;46849;48.154;17.042;2022-09-09T13:28:44;0.77;;;0.22;;
60975;SDS011;46849;48.154;17.042;2022-09-09T13:31:30;2.83;;;0.38;;
60975;SDS011;46849;48.154;17.042;2022-09-09T13:34:27;0.65;;;0.20;;
60975;SDS011;46849;48.154;17.042;2022-09-09T13:37:22;2.42;;;0.40;;
60975;SDS011;46849;48.154;17.042;2022-09-09T13:40:22;1.15;;;0.32;;
60975;SDS011;46849;48.154;17.042;2022-09-09T13:43:13;1.88;;;0.30;;
60975;SDS011;46849;48.154;17.042;2022-09-09T13:46:04;1.02;;;0.13;;
60975;SDS011;46849;48.154;17.042;2022-09-09T13:52:02;1.70;;;0.35;;
60975;SDS011;46849;48.154;17.042;2022-09-09T13:54:51;1.70;;;0.30;;
60975;SDS011;46849;48.154;17.042;2022-09-09T13:57:39;0.70;;;0.20;;
60975;SDS011;46849;48.154;17.042;2022-09-09T14:00:41;2.38;;;0.43;;
60975;SDS011;46849;48.154;17.042;2022-09-09T14:03:25;1.85;;;0.20;;
60975;SDS011;46849;48.154;17.042;2022-09-09T14:06:11;0.45;;;0.10;;
60975;SDS011;46849;48.154;17.042;2022-09-09T14:08:56;0.70;;;0.60;;
60975;SDS011;46849;48.154;17.042;2022-09-09T14:11:40;2.60;;;1.00;;
60975;SDS011;46849;48.154;17.042;2022-09-09T14:14:26;0.95;;;0.30;;
60975;SDS011;46849;48.154;17.042;2022-09-09T14:17:10;1.35;;;0.38;;
60975;SDS011;46849;48.154;17.042;2022-09-09T14:19:57;1.00;;;0.30;;
60975;SDS011;46849;48.154;17.042;2022-09-09T14:22:42;1.08;;;0.32;;
60975;SDS011;46849;48.154;17.042;2022-09-09T14:25:28;4.47;;;0.98;;
60975;SDS011;46849;48.154;17.042;2022-09-09T14:28:13;0.98;;;0.30;;
60975;SDS011;46849;48.154;17.042;2022-09-09T14:30:59;1.27;;;0.30;;
60975;SDS011;46849;48.154;17.042;2022-09-09T14:33:44;1.48;;;0.50;;
60975;SDS011;46849;48.154;17.042;2022-09-09T14:36:29;0.47;;;0.17;;
60975;SDS011;46849;48.154;17.042;2022-09-09T14:39:14;1.33;;;0.20;;
60975;SDS011;46849;48.154;17.042;2022-09-09T14:41:59;2.05;;;0.30;;
60975;SDS011;46849;48.154;17.042;2022-09-09T14:44:43;0.95;;;0.40;;
60975;SDS011;46849;48.154;17.042;2022-09-09T14:47:29;1.58;;;0.75;;
60975;SDS011;46849;48.154;17.042;2022-09-09T14:50:14;0.70;;;0.28;;
60975;SDS011;46849;48.154;17.042;2022-09-09T14:52:59;2.05;;;0.73;;
60975;SDS011;46849;48.154;17.042;2022-09-09T14:55:44;0.73;;;0.40;;
60975;SDS011;46849;48.154;17.042;2022-09-09T14:58:31;1.55;;;0.40;;
60975;SDS011;46849;48.154;17.042;2022-09-09T15:01:17;0.95;;;0.38;;
60975;SDS011;46849;48.154;17.042;2022-09-09T15:04:03;1.60;;;0.80;;
60975;SDS011;46849;48.154;17.042;2022-09-09T15:06:49;0.82;;;0.38;;
60975;SDS011;46849;48.154;17.042;2022-09-09T15:09:36;1.00;;;0.30;;
60975;SDS011;46849;48.154;17.042;2022-09-09T15:12:21;0.50;;;0.40;;
60975;SDS011;46849;48.154;17.042;2022-09-09T15:15:06;1.25;;;0.55;;
60975;SDS011;46849;48.154;17.042;2022-09-09T15:17:50;1.20;;;0.52;;
60975;SDS011;46849;48.154;17.042;2022-09-09T15:20:35;2.00;;;0.40;;
60975;SDS011;46849;48.154;17.042;2022-09-09T15:23:21;2.35;;;0.60;;
60975;SDS011;46849;48.154;17.042;2022-09-09T15:26:06;1.08;;;0.50;;
60975;SDS011;46849;48.154;17.042;2022-09-09T15:28:54;1.77;;;0.80;;
60975;SDS011;46849;48.154;17.042;2022-09-09T15:31:39;1.70;;;0.60;;
60975;SDS011;46849;48.154;17.042;2022-09-09T15:34:23;2.60;;;0.50;;
60975;SDS011;46849;48.154;17.042;2022-09-09T15:37:10;1.73;;;0.50;;
60975;SDS011;46849;48.154;17.042;2022-09-09T15:39:57;1.15;;;0.60;;
60975;SDS011;46849;48.154;17.042;2022-09-09T15:42:44;2.78;;;0.70;;
60975;SDS011;46849;48.154;17.042;2022-09-09T15:45:29;2.15;;;0.68;;
60975;SDS011;46849;48.154;17.042;2022-09-09T15:48:15;1.90;;;0.68;;
60975;SDS011;46849;48.154;17.042;2022-09-09T15:51:03;1.38;;;0.77;;
60975;SDS011;46849;48.154;17.042;2022-09-09T15:53:53;2.90;;;0.43;;
60975;SDS011;46849;48.154;17.042;2022-09-09T15:56:40;1.05;;;0.63;;
60975;SDS011;46849;48.154;17.042;2022-09-09T15:59:26;1.15;;;0.43;;
60975;SDS011;46849;48.154;17.042;2022-09-09T16:02:12;3.00;;;0.40;;
60975;SDS011;46849;48.154;17.042;2022-09-09T16:04:56;2.47;;;0.60;;
60975;SDS011;46849;48.154;17.042;2022-09-09T16:07:45;1.48;;;0.65;;
60975;SDS011;46849;48.154;17.042;2022-09-09T16:10:30;0.95;;;0.28;;
60975;SDS011;46849;48.154;17.042;2022-09-09T16:13:14;1.00;;;0.40;;
60975;SDS011;46849;48.154;17.042;2022-09-09T16:15:59;1.33;;;0.43;;
60975;SDS011;46849;48.154;17.042;2022-09-09T16:18:45;2.22;;;0.50;;
60975;SDS011;46849;48.154;17.042;2022-09-09T16:21:35;1.27;;;0.50;;
60975;SDS011;46849;48.154;17.042;2022-09-09T16:24:22;3.22;;;0.57;;
60975;SDS011;46849;48.154;17.042;2022-09-09T16:27:08;1.67;;;0.63;;
60975;SDS011;46849;48.154;17.042;2022-09-09T16:29:52;1.70;;;0.50;;
60975;SDS011;46849;48.154;17.042;2022-09-09T16:32:38;2.00;;;0.40;;
60975;SDS011;46849;48.154;17.042;2022-09-09T16:35:22;0.55;;;0.47;;
60975;SDS011;46849;48.154;17.042;2022-09-09T16:38:08;2.55;;;0.70;;
60975;SDS011;46849;48.154;17.042;2022-09-09T16:40:58;3.60;;;0.70;;
60975;SDS011;46849;48.154;17.042;2022-09-09T16:43:43;1.95;;;0.50;;
60975;SDS011;46849;48.154;17.042;2022-09-09T16:46:28;1.30;;;0.50;;
60975;SDS011;46849;48.154;17.042;2022-09-09T16:49:14;1.77;;;0.52;;
60975;SDS011;46849;48.154;17.042;2022-09-09T16:52:00;1.13;;;0.73;;
60975;SDS011;46849;48.154;17.042;2022-09-09T16:54:45;2.80;;;0.70;;
60975;SDS011;46849;48.154;17.042;2022-09-09T16:57:29;3.50;;;0.50;;
60975;SDS011;46849;48.154;17.042;2022-09-09T17:00:15;1.20;;;0.50;;
60975;SDS011;46849;48.154;17.042;2022-09-09T17:03:03;3.33;;;0.65;;
60975;SDS011;46849;48.154;17.042;2022-09-09T17:05:47;2.00;;;0.40;;
60975;SDS011;46849;48.154;17.042;2022-09-09T17:08:32;0.75;;;0.55;;
60975;SDS011;46849;48.154;17.042;2022-09-09T17:11:18;1.35;;;0.55;;
60975;SDS011;46849;48.154;17.042;2022-09-09T17:14:03;1.25;;;0.60;;
60975;SDS011;46849;48.154;17.042;2022-09-09T17:16:49;4.10;;;0.85;;
60975;SDS011;46849;48.154;17.042;2022-09-09T17:19:34;1.67;;;0.65;;
60975;SDS011;46849;48.154;17.042;2022-09-09T17:22:20;1.83;;;0.77;;
60975;SDS011;46849;48.154;17.042;2022-09-09T17:25:05;3.15;;;0.63;;
60975;SDS011;46849;48.154;17.042;2022-09-09T17:27:50;1.10;;;0.70;;
60975;SDS011;46849;48.154;17.042;2022-09-09T17:30:35;1.08;;;0.60;;
60975;SDS011;46849;48.154;17.042;2022-09-09T17:33:20;1.95;;;0.63;;
60975;SDS011;46849;48.154;17.042;2022-09-09T17:36:07;1.42;;;0.70;;
60975;SDS011;46849;48.154;17.042;2022-09-09T17:38:57;4.07;;;0.50;;
60975;SDS011;46849;48.154;17.042;2022-09-09T17:41:43;1.92;;;0.75;;
60975;SDS011;46849;48.154;17.042;2022-09-09T17:44:28;4.03;;;0.50;;
60975;SDS011;46849;48.154;17.042;2022-09-09T17:47:13;1.48;;;0.30;;
60975;SDS011;46849;48.154;17.042;2022-09-09T17:49:57;1.25;;;0.68;;
60975;SDS011;46849;48.154;17.042;2022-09-09T17:52:42;1.15;;;0.50;;
60975;SDS011;46849;48.154;17.042;2022-09-09T17:55:27;1.98;;;0.77;;
60975;SDS011;46849;48.154;17.042;2022-09-09T17:58:13;1.80;;;0.50;;
60975;SDS011;46849;48.154;17.042;2022-09-09T18:01:05;3.15;;;1.15;;
60975;SDS011;46849;48.154;17.042;2022-09-09T18:03:50;1.58;;;0.60;;
60975;SDS011;46849;48.154;17.042;2022-09-09T18:06:37;3.17;;;0.57;;
60975;SDS011;46849;48.154;17.042;2022-09-09T18:09:24;1.20;;;0.45;;
60975;SDS011;46849;48.154;17.042;2022-09-09T18:12:11;1.77;;;0.50;;
60975;SDS011;46849;48.154;17.042;2022-09-09T18:14:55;1.52;;;0.60;;
60975;SDS011;46849;48.154;17.042;2022-09-09T18:17:40;1.08;;;0.60;;
60975;SDS011;46849;48.154;17.042;2022-09-09T18:20:25;2.42;;;0.63;;
60975;SDS011;46849;48.154;17.042;2022-09-09T18:23:10;1.67;;;0.70;;
60975;SDS011;46849;48.154;17.042;2022-09-09T18:25:55;1.23;;;0.57;;
60975;SDS011;46849;48.154;17.042;2022-09-09T18:28:46;2.35;;;0.50;;